Time;durP1;ratioP1;P1;durP2;ratioP2;P2;SDS_P1;SDS_P2;PMS_P1;PMS_P2;Temp;Humidity;BMP_temperature;BMP_pressure;BME280_temperature;BME280_humidity;BME280_pressure;Samples;Min_cycle;Max_cycle;Signal;HPM_P1;HPM_P2
2021/10/24 00:01:46;;;;;;;14.47;10.90;;;5.60;99.90;;;;;;5035579;28;20429;-92
2021/10/24 00:04:14;;;;;;;10.63;9.50;;;5.70;99.90;;;;;;5015859;28;20912;-92
2021/10/24 00:06:41;;;;;;;13.87;11.00;;;5.70;99.90;;;;;;5015134;28;20456;-94
2021/10/24 00:09:08;;;;;;;14.70;9.87;;;5.80;99.90;;;;;;5017524;28;20464;-92
2021/10/24 00:11:36;;;;;;;13.43;10.27;;;5.70;99.90;;;;;;5015655;28;20500;-93
2021/10/24 00:14:04;;;;;;;11.47;10.20;;;5.70;99.90;;;;;;5017196;28;20434;-92
2021/10/24 00:16:32;;;;;;;12.67;11.20;;;5.70;99.90;;;;;;5022094;28;20450;-92
2021/10/24 00:18:58;;;;;;;13.37;11.03;;;5.60;99.90;;;;;;5019329;28;20473;-88
2021/10/24 00:21:27;;;;;;;14.10;11.33;;;5.60;99.90;;;;;;5024497;28;20442;-88
2021/10/24 00:23:54;;;;;;;14.83;12.27;;;5.50;99.90;;;;;;5027721;28;20438;-88
2021/10/24 00:26:21;;;;;;;13.00;10.03;;;5.40;99.90;;;;;;5025825;28;20444;-86
2021/10/24 00:28:48;;;;;;;12.13;10.40;;;5.40;99.90;;;;;;5034220;28;20442;-86
2021/10/24 00:31:15;;;;;;;13.17;10.33;;;5.40;99.90;;;;;;5028063;28;20457;-88
2021/10/24 00:33:41;;;;;;;11.63;10.13;;;5.40;99.90;;;;;;5037848;28;20450;-86
2021/10/24 00:36:08;;;;;;;12.87;11.33;;;5.30;99.90;;;;;;5019035;28;20442;-87
2021/10/24 00:38:39;;;;;;;11.23;9.97;;;5.40;99.90;;;;;;5032876;28;20467;-87
2021/10/24 00:41:45;;;;;;;;;;;;;;;;;;;;;
2021/10/24 00:44:21;;;;;;;13.10;10.43;;;5.40;99.90;;;;;;5035369;28;20485;-86
2021/10/24 00:46:49;;;;;;;14.33;10.37;;;5.30;99.90;;;;;;5036199;28;20465;-87
2021/10/24 00:49:16;;;;;;;13.27;10.17;;;5.30;99.90;;;;;;5022381;28;20456;-88
2021/10/24 00:51:43;;;;;;;11.57;9.83;;;5.30;99.90;;;;;;5036151;23;21033;-87
2021/10/24 00:54:13;;;;;;;11.97;10.00;;;5.30;99.90;;;;;;5037400;28;20433;-87
2021/10/24 00:56:41;;;;;;;16.83;11.30;;;5.20;99.90;;;;;;5039187;28;20527;-87
2021/10/24 00:59:08;;;;;;;11.60;10.10;;;5.20;99.90;;;;;;5037370;28;20970;-87
2021/10/24 01:01:35;;;;;;;11.50;9.93;;;5.20;99.90;;;;;;5035010;28;21028;-87
2021/10/24 01:04:03;;;;;;;11.53;10.30;;;5.10;99.90;;;;;;5043392;28;20445;-87
2021/10/24 01:06:31;;;;;;;12.17;9.90;;;5.00;99.90;;;;;;5039477;28;20564;-87
2021/10/24 01:08:57;;;;;;;11.30;9.60;;;5.00;99.90;;;;;;5038145;28;20836;-87
2021/10/24 01:11:27;;;;;;;10.37;9.33;;;5.10;99.90;;;;;;5036640;28;20465;-87
2021/10/24 01:13:53;;;;;;;13.60;10.40;;;5.10;99.90;;;;;;5053131;28;20436;-87
2021/10/24 01:16:20;;;;;;;11.87;10.60;;;5.00;99.90;;;;;;5045273;28;20441;-87
2021/10/24 01:18:48;;;;;;;14.73;9.70;;;5.10;99.90;;;;;;5045082;28;20441;-91
2021/10/24 01:21:20;;;;;;;10.70;9.40;;;5.00;99.90;;;;;;5048875;28;20464;-91
2021/10/24 01:23:47;;;;;;;13.33;11.80;;;4.90;99.90;;;;;;5038747;28;20489;-91
2021/10/24 01:26:14;;;;;;;14.30;10.83;;;4.90;99.90;;;;;;5051687;28;20483;-91
2021/10/24 01:28:41;;;;;;;13.40;11.10;;;4.90;99.90;;;;;;5049549;28;20476;-91
2021/10/24 01:31:36;;;;;;;15.60;10.30;;;4.80;99.90;;;;;;5037795;28;20563;-91
2021/10/24 01:34:04;;;;;;;11.57;10.23;;;4.70;99.90;;;;;;5036887;28;20457;-91
2021/10/24 01:36:33;;;;;;;14.07;11.03;;;4.70;99.90;;;;;;5036575;28;20503;-91
2021/10/24 01:39:00;;;;;;;12.97;9.87;;;4.60;99.90;;;;;;5022180;28;20470;-91
2021/10/24 01:41:28;;;;;;;15.00;11.90;;;4.70;99.90;;;;;;5034196;28;20494;-91
2021/10/24 01:43:56;;;;;;;14.23;11.97;;;4.60;99.90;;;;;;5036171;28;20441;-91
2021/10/24 01:46:24;;;;;;;12.07;10.03;;;4.60;99.90;;;;;;5041832;28;20527;-91
2021/10/24 01:48:51;;;;;;;14.23;11.63;;;4.50;99.90;;;;;;5051745;28;20476;-91
2021/10/24 01:51:19;;;;;;;15.10;11.27;;;4.40;99.90;;;;;;5041404;28;20488;-90
2021/10/24 01:53:49;;;;;;;13.43;12.10;;;4.50;99.90;;;;;;5046869;28;20440;-91
2021/10/24 01:56:16;;;;;;;12.43;11.20;;;4.50;99.90;;;;;;5032221;28;20804;-91
2021/10/24 01:58:44;;;;;;;12.83;11.53;;;4.40;99.90;;;;;;5032719;28;20444;-91
2021/10/24 02:01:11;;;;;;;14.27;10.97;;;4.30;99.90;;;;;;5036871;28;20468;-89
2021/10/24 02:03:38;;;;;;;16.40;12.40;;;4.30;99.90;;;;;;5044119;28;20448;-90
2021/10/24 02:06:06;;;;;;;15.17;11.07;;;4.40;99.90;;;;;;5036828;28;20486;-90
2021/10/24 02:08:32;;;;;;;15.87;11.77;;;4.40;99.90;;;;;;5039165;28;20448;-90
2021/10/24 02:11:01;;;;;;;12.03;10.03;;;4.40;99.90;;;;;;5037141;28;20470;-91
2021/10/24 02:13:28;;;;;;;11.03;9.93;;;4.50;99.90;;;;;;5039150;28;20836;-91
2021/10/24 02:15:55;;;;;;;10.60;9.60;;;4.50;99.90;;;;;;5035656;28;20455;-91
2021/10/24 02:18:22;;;;;;;12.50;10.70;;;4.50;99.90;;;;;;5034754;28;20457;-91
2021/10/24 02:20:48;;;;;;;9.73;7.80;;;4.50;99.90;;;;;;5035362;28;20483;-91
2021/10/24 02:23:15;;;;;;;10.63;8.23;;;4.50;99.90;;;;;;5034926;28;20490;-91
2021/10/24 02:25:42;;;;;;;12.97;10.53;;;4.40;99.90;;;;;;5034448;28;20487;-90
2021/10/24 02:28:10;;;;;;;10.73;9.43;;;4.30;99.90;;;;;;5061997;28;20408;-92
2021/10/24 02:30:37;;;;;;;9.20;8.27;;;4.30;99.90;;;;;;5055895;28;20455;-91
2021/10/24 02:33:04;;;;;;;11.77;9.23;;;4.30;99.90;;;;;;5046166;28;20429;-92
2021/10/24 02:35:31;;;;;;;12.90;9.17;;;4.40;99.90;;;;;;5048977;28;20462;-92
2021/10/24 02:37:58;;;;;;;10.63;9.30;;;4.40;99.90;;;;;;5034720;28;20446;-91
2021/10/24 02:40:25;;;;;;;9.20;7.93;;;4.40;99.90;;;;;;5044113;28;21587;-92
2021/10/24 02:42:52;;;;;;;13.93;8.20;;;4.40;99.90;;;;;;5047946;28;20506;-91
2021/10/24 02:45:21;;;;;;;12.03;10.17;;;4.40;99.90;;;;;;5033848;28;20984;-91
2021/10/24 02:47:48;;;;;;;13.10;9.30;;;4.50;99.90;;;;;;5033899;28;20837;-91
2021/10/24 02:50:17;;;;;;;11.17;10.00;;;4.50;99.90;;;;;;5034146;28;20456;-91
2021/10/24 02:52:44;;;;;;;11.87;8.93;;;4.50;99.90;;;;;;5021898;28;20477;-91
2021/10/24 02:55:10;;;;;;;10.77;9.67;;;4.50;99.90;;;;;;5032282;28;20828;-91
2021/10/24 02:57:37;;;;;;;15.07;10.57;;;4.50;99.90;;;;;;5052168;28;20480;-92
2021/10/24 03:00:06;;;;;;;9.80;8.80;;;4.40;99.90;;;;;;5046859;28;20436;-91
2021/10/24 03:02:36;;;;;;;15.03;9.40;;;4.30;99.90;;;;;;5051951;28;20449;-91
2021/10/24 03:05:03;;;;;;;13.37;12.00;;;4.30;99.90;;;;;;5034441;28;20846;-91
2021/10/24 03:07:30;;;;;;;11.87;10.03;;;4.30;99.90;;;;;;5036224;28;20797;-91
2021/10/24 03:09:57;;;;;;;11.87;10.77;;;4.20;99.90;;;;;;5034897;28;20844;-91
2021/10/24 03:12:24;;;;;;;12.00;10.70;;;4.20;99.90;;;;;;5034071;28;20457;-91
2021/10/24 03:14:50;;;;;;;10.60;9.60;;;4.20;99.90;;;;;;5043963;28;20536;-91
2021/10/24 03:17:17;;;;;;;12.73;11.27;;;4.20;99.90;;;;;;5038740;28;20524;-91
2021/10/24 03:19:45;;;;;;;12.53;9.90;;;4.20;99.90;;;;;;5047467;28;20527;-91
2021/10/24 03:22:12;;;;;;;10.60;9.13;;;4.10;99.90;;;;;;5029779;28;20478;-92
2021/10/24 03:24:39;;;;;;;10.50;9.50;;;4.10;99.90;;;;;;5033255;28;20841;-91
2021/10/24 03:27:06;;;;;;;12.50;10.37;;;4.00;99.90;;;;;;5033121;28;20481;-92
2021/10/24 03:29:33;;;;;;;11.03;9.40;;;4.00;99.90;;;;;;5033841;28;20452;-92
2021/10/24 03:32:03;;;;;;;13.47;9.37;;;3.90;99.90;;;;;;5033187;28;20471;-91
2021/10/24 03:34:30;;;;;;;12.10;9.60;;;3.80;99.90;;;;;;5033392;28;20447;-92
2021/10/24 03:36:58;;;;;;;10.93;9.50;;;3.90;99.90;;;;;;5024851;28;20433;-91
2021/10/24 03:39:25;;;;;;;11.83;10.20;;;3.80;99.90;;;;;;5033843;28;20453;-90
2021/10/24 03:41:52;;;;;;;9.73;8.70;;;3.80;99.90;;;;;;5040683;28;20457;-90
2021/10/24 03:44:19;;;;;;;11.27;10.10;;;3.80;99.90;;;;;;5050410;28;21147;-90
2021/10/24 03:46:45;;;;;;;11.67;9.80;;;3.80;99.90;;;;;;5050114;28;20484;-90
2021/10/24 03:49:12;;;;;;;13.67;10.30;;;3.80;99.90;;;;;;5033394;28;20451;-89
2021/10/24 03:51:39;;;;;;;11.57;10.30;;;3.80;99.90;;;;;;5057776;28;20491;-91
2021/10/24 03:54:08;;;;;;;10.57;9.50;;;3.80;99.90;;;;;;5040692;28;20444;-90
2021/10/24 03:56:34;;;;;;;10.97;9.43;;;3.80;99.90;;;;;;5036975;28;20450;-89
2021/10/24 03:59:01;;;;;;;9.57;8.57;;;3.80;99.90;;;;;;5036742;28;20436;-90
2021/10/24 04:01:28;;;;;;;11.50;9.10;;;3.70;99.90;;;;;;5036770;28;20461;-90
2021/10/24 04:03:55;;;;;;;10.37;9.17;;;3.70;99.90;;;;;;5037015;28;20441;-89
2021/10/24 04:06:21;;;;;;;9.83;8.83;;;3.60;99.90;;;;;;5028462;28;20483;-90
2021/10/24 04:08:48;;;;;;;16.07;9.70;;;3.60;99.90;;;;;;5036241;28;20450;-90
2021/10/24 04:11:17;;;;;;;10.60;8.07;;;3.60;99.90;;;;;;5036641;28;20471;-90
2021/10/24 04:13:43;;;;;;;9.40;8.47;;;3.60;99.90;;;;;;5032641;28;20445;-90
2021/10/24 04:16:10;;;;;;;8.80;7.90;;;3.50;99.90;;;;;;5036942;28;20980;-90
2021/10/24 04:18:37;;;;;;;10.80;9.70;;;3.50;99.90;;;;;;5041545;28;20462;-90
2021/10/24 04:21:16;;;;;;;10.48;9.27;;;3.50;99.90;;;;;;5058747;28;20450;-90
2021/10/24 04:23:43;;;;;;;14.23;9.10;;;3.60;99.90;;;;;;5049031;28;20194;-91
2021/10/24 04:26:10;;;;;;;16.03;10.37;;;3.60;99.90;;;;;;5056377;28;20471;-90
2021/10/24 04:28:38;;;;;;;13.20;8.87;;;3.60;99.90;;;;;;5061110;28;20478;-91
2021/10/24 04:31:05;;;;;;;12.33;8.80;;;3.60;99.90;;;;;;5060592;28;20508;-92
2021/10/24 04:33:32;;;;;;;9.50;8.47;;;3.50;99.90;;;;;;5060848;28;20419;-91
2021/10/24 04:35:59;;;;;;;12.80;8.77;;;3.50;99.90;;;;;;5058540;28;20443;-92
2021/10/24 04:38:28;;;;;;;10.30;9.20;;;3.60;99.90;;;;;;5051196;28;20448;-91
2021/10/24 04:40:55;;;;;;;10.13;8.67;;;3.60;99.90;;;;;;5038461;28;20897;-90
2021/10/24 04:43:21;;;;;;;9.63;8.67;;;3.60;99.90;;;;;;5055353;28;20436;-90
2021/10/24 04:45:50;;;;;;;11.93;8.60;;;3.60;99.90;;;;;;5051813;28;20478;-91
2021/10/24 04:48:17;;;;;;;10.00;8.00;;;3.60;99.90;;;;;;5053227;28;20463;-91
2021/10/24 04:50:44;;;;;;;8.60;7.73;;;3.60;99.90;;;;;;5037425;28;20436;-91
2021/10/24 04:53:11;;;;;;;11.23;9.10;;;3.50;99.90;;;;;;5036820;28;20476;-91
2021/10/24 04:55:38;;;;;;;11.77;9.77;;;3.50;99.90;;;;;;5036246;28;20444;-91
2021/10/24 04:58:05;;;;;;;14.20;9.63;;;3.50;99.90;;;;;;5035299;28;20452;-92
2021/10/24 05:00:32;;;;;;;10.80;8.77;;;3.40;99.90;;;;;;5036728;28;20475;-91
2021/10/24 05:03:01;;;;;;;10.60;9.17;;;3.40;99.90;;;;;;5035801;28;20559;-91
2021/10/24 05:05:28;;;;;;;12.50;10.73;;;3.40;99.90;;;;;;5025314;28;20497;-91
2021/10/24 05:07:55;;;;;;;14.30;9.93;;;3.40;99.90;;;;;;5035811;28;20462;-91
2021/10/24 05:10:22;;;;;;;12.70;9.80;;;3.40;99.90;;;;;;5035393;28;20435;-90
2021/10/24 05:12:49;;;;;;;12.10;9.30;;;3.40;99.90;;;;;;5035504;28;20466;-90
2021/10/24 05:15:16;;;;;;;12.63;10.00;;;3.40;99.90;;;;;;5035260;28;20457;-92
2021/10/24 05:17:43;;;;;;;12.03;9.80;;;3.40;99.90;;;;;;5033419;28;20822;-91
2021/10/24 05:20:12;;;;;;;11.67;9.07;;;3.30;99.90;;;;;;5034805;28;20460;-90
2021/10/24 05:22:39;;;;;;;11.80;10.43;;;3.40;99.90;;;;;;5035397;28;20468;-90
2021/10/24 05:25:07;;;;;;;13.30;9.50;;;3.40;99.90;;;;;;5035762;28;20440;-92
2021/10/24 05:27:34;;;;;;;12.27;9.07;;;3.40;99.90;;;;;;5035369;28;20488;-91
2021/10/24 05:30:01;;;;;;;12.17;9.30;;;3.30;99.90;;;;;;5036678;28;20947;-90
2021/10/24 05:32:28;;;;;;;12.83;9.50;;;3.30;99.90;;;;;;5055485;28;20527;-92
2021/10/24 05:34:55;;;;;;;15.10;9.30;;;3.30;99.90;;;;;;5044516;28;20522;-90
2021/10/24 05:37:23;;;;;;;13.33;10.77;;;3.30;99.90;;;;;;5037109;28;20445;-91
2021/10/24 05:39:50;;;;;;;12.50;9.00;;;3.30;99.90;;;;;;5035982;28;21164;-90
2021/10/24 05:42:19;;;;;;;10.10;9.03;;;3.30;99.90;;;;;;5035094;28;20839;-90
2021/10/24 05:44:46;;;;;;;10.47;9.40;;;3.30;99.90;;;;;;5031286;28;20438;-90
2021/10/24 05:47:13;;;;;;;9.60;8.57;;;3.20;99.90;;;;;;5032709;28;20516;-91
2021/10/24 05:49:40;;;;;;;12.60;9.90;;;3.20;99.90;;;;;;5053339;28;20449;-91
2021/10/24 05:52:07;;;;;;;13.73;9.97;;;3.20;99.90;;;;;;5035147;28;20475;-91
2021/10/24 05:54:35;;;;;;;11.45;10.27;;;3.20;99.90;;;;;;5034568;28;20970;-91
2021/10/24 05:57:02;;;;;;;13.70;9.10;;;3.20;99.90;;;;;;5034269;28;20564;-91
2021/10/24 05:59:29;;;;;;;12.18;10.43;;;3.20;99.90;;;;;;5034751;28;20457;-90
2021/10/24 06:01:56;;;;;;;10.67;9.20;;;3.20;99.90;;;;;;5034619;28;20220;-91
2021/10/24 06:04:23;;;;;;;11.63;10.03;;;3.20;99.90;;;;;;5034400;28;20499;-91
2021/10/24 06:06:50;;;;;;;15.77;9.93;;;3.20;99.90;;;;;;5036659;28;20479;-91
2021/10/24 06:09:17;;;;;;;12.70;10.30;;;3.20;99.90;;;;;;5034469;28;20442;-91
2021/10/24 06:11:55;;;;;;;11.38;10.18;;;3.20;99.90;;;;;;5042116;28;20448;-91
2021/10/24 06:14:22;;;;;;;10.73;9.50;;;3.20;99.90;;;;;;5058163;28;20174;-91
2021/10/24 06:16:49;;;;;;;11.33;8.80;;;3.20;99.90;;;;;;5046903;28;21052;-91
2021/10/24 06:19:16;;;;;;;13.50;10.80;;;3.20;99.90;;;;;;5044293;28;20440;-91
2021/10/24 06:21:43;;;;;;;10.45;9.45;;;3.20;99.90;;;;;;5038982;28;20477;-91
2021/10/24 06:24:10;;;;;;;10.97;9.77;;;3.20;99.90;;;;;;5034408;28;20205;-91
2021/10/24 06:26:37;;;;;;;13.43;9.65;;;3.20;99.90;;;;;;5044032;28;20490;-90
2021/10/24 06:29:05;;;;;;;12.27;9.90;;;3.10;99.90;;;;;;5045508;28;20260;-91
2021/10/24 06:31:32;;;;;;;12.35;10.52;;;3.10;99.90;;;;;;5053096;28;20484;-91
2021/10/24 06:33:59;;;;;;;12.43;11.10;;;3.20;99.90;;;;;;5040948;28;20201;-90
2021/10/24 06:36:26;;;;;;;14.60;9.70;;;3.20;99.90;;;;;;5049563;28;20459;-90
2021/10/24 06:38:53;;;;;;;11.55;10.43;;;3.20;99.90;;;;;;5038357;28;20949;-92
2021/10/24 06:41:20;;;;;;;12.52;10.13;;;3.30;99.90;;;;;;5035471;28;20227;-92
2021/10/24 06:43:47;;;;;;;11.80;9.40;;;3.30;99.90;;;;;;5041156;28;20208;-91
2021/10/24 06:46:15;;;;;;;14.67;11.60;;;3.40;99.90;;;;;;5057943;28;20459;-92
2021/10/24 06:48:42;;;;;;;11.00;9.23;;;3.40;99.90;;;;;;5054035;28;20475;-92
2021/10/24 06:53:44;;;;;;;11.53;8.87;;;3.60;99.90;;;;;;5018968;28;20481;-90
2021/10/24 06:56:12;;;;;;;14.17;9.53;;;3.60;99.90;;;;;;5025773;28;20420;-89
2021/10/24 06:58:41;;;;;;;12.13;10.00;;;3.60;99.90;;;;;;5028623;28;20448;-90
2021/10/24 07:01:08;;;;;;;10.32;9.20;;;3.70;99.90;;;;;;5020815;28;20502;-92
2021/10/24 07:03:42;;;;;;;13.32;9.52;;;3.70;99.90;;;;;;5006886;28;20203;-93
2021/10/24 07:06:16;;;;;;;9.70;8.73;;;3.70;99.90;;;;;;5009317;28;20257;-94
2021/10/24 07:08:43;;;;;;;11.20;8.90;;;3.80;99.90;;;;;;5011960;28;20464;-92
2021/10/24 07:11:27;;;;;;;10.07;8.20;;;3.80;99.90;;;;;;5014774;28;20451;-94
2021/10/24 07:13:58;;;;;;;10.20;8.52;;;3.90;99.90;;;;;;5034906;28;20418;-93
2021/10/24 07:16:35;;;;;;;11.13;9.43;;;4.00;99.90;;;;;;5019360;28;20193;-92
2021/10/24 07:19:03;;;;;;;13.23;8.30;;;4.00;99.90;;;;;;5019211;28;20430;-90
2021/10/24 07:21:30;;;;;;;12.20;8.93;;;4.10;99.90;;;;;;5024946;28;20489;-93
2021/10/24 07:23:56;;;;;;;10.90;8.87;;;4.10;99.90;;;;;;5032178;28;20528;-93
2021/10/24 07:26:23;;;;;;;11.30;9.03;;;4.20;99.90;;;;;;5021469;28;20487;-93
2021/10/24 07:28:50;;;;;;;9.23;7.97;;;4.20;99.90;;;;;;5012428;28;20494;-92
2021/10/24 07:31:17;;;;;;;11.77;10.23;;;4.30;99.90;;;;;;5016702;28;20452;-94
2021/10/24 07:33:44;;;;;;;12.40;8.90;;;4.40;99.90;;;;;;5009949;28;20450;-93
2021/10/24 07:36:12;;;;;;;11.60;8.50;;;4.50;99.90;;;;;;5030004;28;20496;-91
2021/10/24 07:38:39;;;;;;;12.20;10.10;;;4.50;99.90;;;;;;5025045;28;20433;-92
2021/10/24 07:41:06;;;;;;;13.43;10.90;;;4.60;99.90;;;;;;5020636;28;20441;-93
2021/10/24 07:43:33;;;;;;;10.53;8.30;;;4.50;99.90;;;;;;5015142;28;20443;-93
2021/10/24 07:46:00;;;;;;;15.90;9.27;;;4.60;99.90;;;;;;5025108;28;20448;-92
2021/10/24 07:48:27;;;;;;;9.90;8.90;;;4.70;99.90;;;;;;5019641;28;20438;-93
2021/10/24 07:50:54;;;;;;;10.50;8.87;;;4.80;99.90;;;;;;5016517;28;20456;-94
2021/10/24 07:53:26;;;;;;;17.03;9.30;;;5.00;99.90;;;;;;5016978;28;20805;-93
2021/10/24 07:56:05;;;;;;;12.90;8.60;;;5.20;99.90;;;;;;5014694;28;20473;-94
2021/10/24 07:58:49;;;;;;;11.27;9.30;;;5.20;99.90;;;;;;5014584;28;20446;-93
2021/10/24 08:01:17;;;;;;;10.60;9.50;;;5.20;99.90;;;;;;5014234;28;20418;-92
2021/10/24 08:03:45;;;;;;;9.90;8.07;;;5.40;99.90;;;;;;5023332;28;20449;-88
2021/10/24 08:06:12;;;;;;;9.10;7.90;;;6.60;99.90;;;;;;5025440;28;20419;-89
2021/10/24 08:08:40;;;;;;;9.83;7.60;;;8.50;99.90;;;;;;5028325;28;20446;-91
2021/10/24 08:11:07;;;;;;;11.40;7.50;;;10.50;99.90;;;;;;5007605;28;20489;-92
2021/10/24 08:13:33;;;;;;;10.63;7.20;;;12.10;99.70;;;;;;5018781;28;20443;-91
2021/10/24 08:16:00;;;;;;;12.77;7.97;;;13.10;96.20;;;;;;5023927;28;20453;-92
2021/10/24 08:18:27;;;;;;;10.40;8.17;;;12.60;93.70;;;;;;5020607;28;20445;-92
2021/10/24 08:20:54;;;;;;;9.50;8.50;;;11.60;94.10;;;;;;5019046;28;20457;-90
2021/10/24 08:23:21;;;;;;;8.40;7.60;;;10.50;95.30;;;;;;5023501;28;20454;-90
2021/10/24 08:25:51;;;;;;;12.87;9.20;;;10.10;96.90;;;;;;5020445;28;20435;-91
2021/10/24 08:28:20;;;;;;;16.83;10.40;;;9.40;98.70;;;;;;5008228;28;20843;-90
2021/10/24 08:35:11;;;;;;;9.73;8.10;;;8.50;99.90;;;;;;4928444;29;20442;-92
2021/10/24 08:37:52;;;;;;;9.07;8.17;;;8.40;99.90;;;;;;4947919;28;20444;-91
2021/10/24 09:04:16;;;;;;;11.40;8.90;;;8.50;99.90;;;;;;4878383;26;20476;-90
2021/10/24 09:06:49;;;;;;;9.10;8.10;;;8.60;99.90;;;;;;5052094;28;20525;-92
2021/10/24 09:09:21;;;;;;;10.10;8.77;;;8.60;99.90;;;;;;5060667;28;20473;-91
2021/10/24 09:11:58;;;;;;;11.83;7.83;;;8.60;99.90;;;;;;5061648;28;20460;-91
2021/10/24 09:14:53;;;;;;;14.30;9.50;;;8.70;99.90;;;;;;5055901;28;20441;-90
2021/10/24 09:20:13;;;;;;;12.10;8.07;;;8.90;99.90;;;;;;5062588;28;20441;-92
2021/10/24 09:27:12;;;;;;;9.57;8.57;;;9.30;99.90;;;;;;5055011;28;20432;-92
2021/10/24 09:56:31;;;;;;;6.93;6.33;;;12.00;94.20;;;;;;3935485;23;20506;-91
2021/10/24 10:03:15;;;;;;;8.30;6.30;;;11.80;94.70;;;;;;4997911;28;20474;-93
2021/10/24 10:19:52;;;;;;;5.63;5.00;;;22.20;61.90;;;;;;4873559;29;21049;-93
2021/10/24 10:22:29;;;;;;;4.87;4.43;;;24.30;55.80;;;;;;4950969;28;20485;-88
2021/10/24 10:24:58;;;;;;;5.37;4.97;;;27.00;51.10;;;;;;5001854;28;20449;-89
2021/10/24 10:27:45;;;;;;;7.70;4.90;;;25.60;47.20;;;;;;5017010;28;20511;-87
2021/10/24 10:30:15;;;;;;;5.30;4.50;;;25.60;46.40;;;;;;5016146;28;20455;-89
2021/10/24 10:32:45;;;;;;;4.97;4.50;;;25.60;47.30;;;;;;5016213;28;20526;-88
2021/10/24 10:35:16;;;;;;;4.80;4.30;;;25.60;46.10;;;;;;5004437;28;20434;-90
2021/10/24 10:37:53;;;;;;;5.07;4.20;;;26.90;45.40;;;;;;4998541;28;20452;-88
2021/10/24 10:40:32;;;;;;;5.13;4.73;;;26.90;43.70;;;;;;4999540;28;20462;-89
2021/10/24 10:43:13;;;;;;;4.50;4.10;;;26.80;43.60;;;;;;4999486;28;20466;-90
2021/10/24 10:45:48;;;;;;;5.50;4.97;;;27.60;43.30;;;;;;5015289;28;20443;-89
2021/10/24 10:48:46;;;;;;;5.20;4.67;;;28.70;41.80;;;;;;5011439;28;20502;-89
2021/10/24 10:51:24;;;;;;;6.53;4.73;;;28.40;40.20;;;;;;5005624;28;20431;-90
2021/10/24 10:54:02;;;;;;;5.43;4.43;;;29.10;39.30;;;;;;5008889;28;20462;-91
2021/10/24 10:56:48;;;;;;;4.90;4.47;;;27.90;40.00;;;;;;5003251;28;20458;-90
2021/10/24 10:59:35;;;;;;;4.80;4.40;;;28.40;40.30;;;;;;4995521;28;20443;-89
2021/10/24 11:02:35;;;;;;;4.30;3.93;;;28.50;39.60;;;;;;4994696;28;20452;-90
2021/10/24 11:05:09;;;;;;;4.90;4.60;;;29.20;38.00;;;;;;4996496;28;20542;-91
2021/10/24 11:07:44;;;;;;;5.27;4.80;;;29.80;38.30;;;;;;4997786;28;20525;-94
2021/10/24 11:10:48;;;;;;;5.10;4.70;;;28.60;38.70;;;;;;4997353;28;21034;-91
2021/10/24 11:13:38;;;;;;;4.70;4.30;;;28.20;38.70;;;;;;4998903;28;20466;-91
2021/10/24 11:21:27;;;;;;;4.40;4.10;;;27.80;39.30;;;;;;4998528;28;20444;-95
2021/10/24 11:24:16;;;;;;;5.00;4.60;;;27.30;39.40;;;;;;4996089;28;20451;-96
2021/10/24 11:26:44;;;;;;;4.23;3.83;;;26.80;41.10;;;;;;4997487;28;20467;-94
2021/10/24 11:29:18;;;;;;;4.23;3.90;;;28.00;40.30;;;;;;4998164;28;20459;-96
2021/10/24 11:32:08;;;;;;;4.97;4.47;;;29.10;38.80;;;;;;5057628;23;20477;-95
2021/10/24 11:34:36;;;;;;;4.70;4.30;;;29.10;37.40;;;;;;5038819;28;20435;-96
2021/10/24 11:37:06;;;;;;;4.40;4.00;;;28.00;38.00;;;;;;5030749;28;20432;-95
2021/10/24 11:50:52;;;;;;;5.27;4.77;;;29.70;37.10;;;;;;5003322;28;20460;-90
2021/10/24 11:53:23;;;;;;;4.53;3.17;;;30.30;35.80;;;;;;4975745;28;20491;-91
2021/10/24 11:55:51;;;;;;;3.50;3.20;;;29.80;36.40;;;;;;4975973;28;20444;-90
2021/10/24 12:01:13;;;;;;;6.40;4.50;;;31.80;35.10;;;;;;4970741;28;20430;-91
2021/10/24 12:03:52;;;;;;;3.90;3.60;;;29.80;35.00;;;;;;4973303;28;20478;-90
2021/10/24 12:06:19;;;;;;;4.90;4.43;;;29.50;36.70;;;;;;4981767;28;20432;-88
2021/10/24 12:08:49;;;;;;;5.07;4.57;;;28.80;36.00;;;;;;4983110;28;20468;-88
2021/10/24 12:11:22;;;;;;;5.90;4.57;;;27.90;37.60;;;;;;4982638;28;20424;-88
2021/10/24 12:13:49;;;;;;;4.37;3.97;;;26.50;38.40;;;;;;4973913;28;20445;-90
2021/10/24 12:16:34;;;;;;;4.83;4.30;;;25.20;41.50;;;;;;4969870;28;20543;-88
2021/10/24 12:19:30;;;;;;;4.83;3.80;;;23.40;43.30;;;;;;4972471;28;20522;-88
2021/10/24 12:22:03;;;;;;;4.00;3.70;;;22.00;45.10;;;;;;4924633;28;20897;-88
2021/10/24 12:24:47;;;;;;;4.13;3.73;;;21.30;47.50;;;;;;4981549;28;20425;-86
2021/10/24 12:27:30;;;;;;;6.07;3.97;;;20.00;48.70;;;;;;4971530;28;20449;-90
2021/10/24 12:29:59;;;;;;;6.60;4.50;;;19.60;50.50;;;;;;4968825;28;20533;-89
2021/10/24 12:32:26;;;;;;;5.53;4.80;;;19.30;51.60;;;;;;4966046;28;20465;-88
2021/10/24 12:35:04;;;;;;;4.80;4.33;;;19.10;52.50;;;;;;4968006;28;20438;-88
2021/10/24 12:37:32;;;;;;;5.93;4.77;;;18.90;52.70;;;;;;4965880;28;20452;-88
2021/10/24 12:40:26;;;;;;;5.90;4.60;;;19.00;52.80;;;;;;4967215;28;21009;-88
2021/10/24 12:43:16;;;;;;;4.77;4.10;;;18.90;53.60;;;;;;4986985;28;20460;-89
2021/10/24 12:45:45;;;;;;;6.87;4.50;;;19.30;54.00;;;;;;4970006;28;20857;-90
2021/10/24 12:48:13;;;;;;;6.27;5.23;;;19.30;52.70;;;;;;4970657;28;20484;-91
2021/10/24 12:50:41;;;;;;;4.80;3.90;;;19.30;52.50;;;;;;4970239;28;20468;-90
2021/10/24 12:53:09;;;;;;;4.90;4.50;;;19.00;54.10;;;;;;4968896;28;20540;-92
2021/10/24 12:55:39;;;;;;;5.73;5.17;;;18.90;54.30;;;;;;4968884;28;20429;-93
2021/10/24 12:58:06;;;;;;;6.20;4.80;;;19.20;54.60;;;;;;4988986;28;20454;-93
2021/10/24 13:00:34;;;;;;;7.40;5.00;;;18.80;54.40;;;;;;4969058;28;20449;-92
2021/10/24 13:03:12;;;;;;;5.90;4.10;;;18.90;55.20;;;;;;4967373;28;20525;-92
2021/10/24 13:05:38;;;;;;;7.13;4.90;;;19.20;54.30;;;;;;4973168;28;20458;-92
2021/10/24 13:08:05;;;;;;;5.53;5.00;;;19.70;53.80;;;;;;4973206;28;20533;-91
2021/10/24 13:10:32;;;;;;;5.47;4.97;;;20.60;52.80;;;;;;4965849;28;20833;-90
2021/10/24 13:13:00;;;;;;;6.30;5.37;;;21.50;52.10;;;;;;4973674;28;20869;-89
2021/10/24 13:15:44;;;;;;;4.40;4.10;;;22.60;49.90;;;;;;4986073;28;20433;-91
2021/10/24 13:18:17;;;;;;;5.10;4.60;;;23.80;48.70;;;;;;4980701;28;20429;-92
2021/10/24 13:20:55;;;;;;;4.57;4.17;;;24.00;46.30;;;;;;4974783;28;20529;-89
2021/10/24 13:23:21;;;;;;;6.07;4.40;;;24.60;46.70;;;;;;4980869;28;20466;-92
2021/10/24 13:25:48;;;;;;;4.90;4.20;;;24.40;46.20;;;;;;4972358;28;20431;-92
2021/10/24 13:28:16;;;;;;;4.87;4.37;;;23.70;46.50;;;;;;4965771;28;20594;-92
2021/10/24 13:30:43;;;;;;;4.60;4.20;;;22.10;48.10;;;;;;4968829;28;20543;-90
2021/10/24 13:45:42;;;;;;;5.83;3.90;;;19.90;53.30;;;;;;4985158;23;20499;-89
2021/10/24 13:48:21;;;;;;;5.40;4.67;;;19.80;53.90;;;;;;4964440;28;20516;-90
2021/10/24 13:51:01;;;;;;;4.27;3.90;;;19.90;53.80;;;;;;4962917;28;20455;-90
2021/10/24 13:53:39;;;;;;;4.70;3.90;;;19.70;54.50;;;;;;4960521;28;20469;-89
2021/10/24 13:56:16;;;;;;;7.90;4.47;;;19.90;54.70;;;;;;4941187;29;20462;-89
2021/10/24 14:02:47;;;;;;;5.53;4.03;;;20.00;54.80;;;;;;4921660;29;20438;-90
2021/10/24 14:05:44;;;;;;;5.60;3.93;;;20.10;54.40;;;;;;4943529;29;20491;-90
2021/10/24 14:08:16;;;;;;;6.30;4.37;;;19.60;54.90;;;;;;4944529;29;21098;-89
2021/10/24 14:10:49;;;;;;;4.70;4.17;;;18.90;55.60;;;;;;4942070;29;20484;-89
2021/10/24 14:13:16;;;;;;;4.97;3.90;;;18.60;56.40;;;;;;4941526;29;20453;-88
2021/10/24 14:15:59;;;;;;;7.03;4.00;;;18.30;57.10;;;;;;4944171;29;20476;-90
2021/10/24 14:18:37;;;;;;;5.60;4.27;;;18.10;58.00;;;;;;4941741;29;20438;-90
2021/10/24 14:21:06;;;;;;;5.20;4.70;;;17.90;58.00;;;;;;4941750;29;20520;-88
2021/10/24 14:23:34;;;;;;;5.53;4.33;;;18.00;57.90;;;;;;4947674;28;20456;-85
2021/10/24 14:26:01;;;;;;;6.07;4.40;;;17.90;58.60;;;;;;4957079;28;20457;-88
2021/10/24 14:28:28;;;;;;;4.30;3.90;;;17.90;58.50;;;;;;4945205;29;20486;-87
2021/10/24 14:30:59;;;;;;;4.33;3.93;;;18.20;58.80;;;;;;4940415;29;20454;-87
2021/10/24 14:33:26;;;;;;;3.70;3.30;;;18.50;58.00;;;;;;4939901;29;20959;-89
2021/10/24 14:35:57;;;;;;;8.83;4.77;;;18.40;57.70;;;;;;4941789;29;20438;-89
2021/10/24 14:38:24;;;;;;;7.63;4.37;;;18.40;58.20;;;;;;4940679;29;20454;-89
2021/10/24 14:40:55;;;;;;;4.40;4.00;;;18.50;58.20;;;;;;4943382;29;20469;-88
2021/10/24 14:43:22;;;;;;;6.57;4.43;;;18.80;57.40;;;;;;4939553;29;20506;-89
2021/10/24 14:45:49;;;;;;;6.63;4.00;;;19.50;56.40;;;;;;4938966;29;20453;-89
2021/10/24 14:48:16;;;;;;;4.50;3.20;;;18.90;56.00;;;;;;4945870;29;20501;-87
2021/10/24 14:50:43;;;;;;;4.40;4.00;;;18.40;57.60;;;;;;4944704;29;20429;-88
2021/10/24 14:53:11;;;;;;;4.80;4.30;;;18.10;58.20;;;;;;4936895;29;20459;-88
2021/10/24 14:55:38;;;;;;;5.23;4.73;;;17.70;58.90;;;;;;4946309;29;20467;-88
2021/10/24 14:58:04;;;;;;;4.57;3.87;;;17.50;59.60;;;;;;4941235;29;20999;-88
2021/10/24 15:00:31;;;;;;;3.90;3.53;;;17.30;60.60;;;;;;4943641;29;20448;-88